sensor_id;sensor_type;location;lat;lon;timestamp;temperature;humidity
34099;DHT22;20374;49.474;10.944;2022-12-07T00:01:27;2.40;99.90
34099;DHT22;20374;49.474;10.944;2022-12-07T00:03:55;2.40;99.90
34099;DHT22;20374;49.474;10.944;2022-12-07T00:06:29;2.40;99.90
34099;DHT22;20374;49.474;10.944;2022-12-07T00:08:55;2.30;99.90
34099;DHT22;20374;49.474;10.944;2022-12-07T00:11:22;2.30;99.90
34099;DHT22;20374;49.474;10.944;2022-12-07T00:13:53;2.30;99.90
34099;DHT22;20374;49.474;10.944;2022-12-07T00:16:21;2.30;99.90
34099;DHT22;20374;49.474;10.944;2022-12-07T00:18:47;2.30;99.90
34099;DHT22;20374;49.474;10.944;2022-12-07T00:21:19;2.30;99.90
34099;DHT22;20374;49.474;10.944;2022-12-07T00:23:47;2.30;99.90
34099;DHT22;20374;49.474;10.944;2022-12-07T00:26:17;2.30;99.90
34099;DHT22;20374;49.474;10.944;2022-12-07T00:28:51;2.30;99.90
34099;DHT22;20374;49.474;10.944;2022-12-07T00:31:20;2.30;99.90
34099;DHT22;20374;49.474;10.944;2022-12-07T00:33:47;2.30;99.90
34099;DHT22;20374;49.474;10.944;2022-12-07T00:36:15;2.40;99.90
34099;DHT22;20374;49.474;10.944;2022-12-07T00:38:42;2.30;99.90
34099;DHT22;20374;49.474;10.944;2022-12-07T00:41:11;2.30;99.90
34099;DHT22;20374;49.474;10.944;2022-12-07T00:43:38;2.40;99.90
34099;DHT22;20374;49.474;10.944;2022-12-07T00:46:05;2.30;99.90
34099;DHT22;20374;49.474;10.944;2022-12-07T00:48:31;2.20;99.90
34099;DHT22;20374;49.474;10.944;2022-12-07T00:50:58;2.30;99.90
34099;DHT22;20374;49.474;10.944;2022-12-07T00:53:24;2.40;99.90
34099;DHT22;20374;49.474;10.944;2022-12-07T00:55:50;2.30;99.90
34099;DHT22;20374;49.474;10.944;2022-12-07T00:58:18;2.40;99.90
34099;DHT22;20374;49.474;10.944;2022-12-07T01:00:45;2.30;99.90
34099;DHT22;20374;49.474;10.944;2022-12-07T01:03:13;2.40;99.90
34099;DHT22;20374;49.474;10.944;2022-12-07T01:05:40;2.30;99.90
34099;DHT22;20374;49.474;10.944;2022-12-07T01:08:14;2.30;99.90
34099;DHT22;20374;49.474;10.944;2022-12-07T01:10:40;2.30;99.90
34099;DHT22;20374;49.474;10.944;2022-12-07T01:13:06;2.30;99.90
34099;DHT22;20374;49.474;10.944;2022-12-07T01:15:32;2.30;99.90
34099;DHT22;20374;49.474;10.944;2022-12-07T01:17:58;2.30;99.90
34099;DHT22;20374;49.474;10.944;2022-12-07T01:20:24;2.30;99.90
34099;DHT22;20374;49.474;10.944;2022-12-07T01:22:50;2.30;99.90
34099;DHT22;20374;49.474;10.944;2022-12-07T01:25:16;2.30;99.90
34099;DHT22;20374;49.474;10.944;2022-12-07T01:27:42;2.40;99.90
34099;DHT22;20374;49.474;10.944;2022-12-07T01:30:10;2.30;99.90
34099;DHT22;20374;49.474;10.944;2022-12-07T01:32:36;2.30;99.90
34099;DHT22;20374;49.474;10.944;2022-12-07T01:35:02;2.40;99.90
34099;DHT22;20374;49.474;10.944;2022-12-07T01:37:34;2.40;99.90
34099;DHT22;20374;49.474;10.944;2022-12-07T01:40:00;2.40;99.90
34099;DHT22;20374;49.474;10.944;2022-12-07T01:42:26;2.30;99.90
34099;DHT22;20374;49.474;10.944;2022-12-07T01:47:53;2.40;99.90
34099;DHT22;20374;49.474;10.944;2022-12-07T01:50:26;2.30;99.90
34099;DHT22;20374;49.474;10.944;2022-12-07T01:52:55;2.30;99.90
34099;DHT22;20374;49.474;10.944;2022-12-07T01:55:22;2.30;99.90
34099;DHT22;20374;49.474;10.944;2022-12-07T01:57:50;2.30;99.90
34099;DHT22;20374;49.474;10.944;2022-12-07T02:00:19;2.20;99.90
34099;DHT22;20374;49.474;10.944;2022-12-07T02:02:55;2.30;99.90
34099;DHT22;20374;49.474;10.944;2022-12-07T02:05:24;2.30;99.90
34099;DHT22;20374;49.474;10.944;2022-12-07T02:07:51;2.30;99.90
34099;DHT22;20374;49.474;10.944;2022-12-07T02:10:24;2.30;99.90
34099;DHT22;20374;49.474;10.944;2022-12-07T02:13:01;2.20;99.90
34099;DHT22;20374;49.474;10.944;2022-12-07T02:32:08;2.20;99.90
34099;DHT22;20374;49.474;10.944;2022-12-07T02:34:55;2.20;99.90
34099;DHT22;20374;49.474;10.944;2022-12-07T02:40:41;2.20;99.90
34099;DHT22;20374;49.474;10.944;2022-12-07T02:43:25;2.20;99.90
34099;DHT22;20374;49.474;10.944;2022-12-07T02:45:55;2.20;99.90
34099;DHT22;20374;49.474;10.944;2022-12-07T02:48:23;2.20;99.90
34099;DHT22;20374;49.474;10.944;2022-12-07T02:50:52;2.10;99.90
34099;DHT22;20374;49.474;10.944;2022-12-07T02:53:37;2.20;99.90
34099;DHT22;20374;49.474;10.944;2022-12-07T03:13:17;1.70;99.90
34099;DHT22;20374;49.474;10.944;2022-12-07T03:18:25;1.60;99.90
34099;DHT22;20374;49.474;10.944;2022-12-07T03:20:56;1.60;99.90
34099;DHT22;20374;49.474;10.944;2022-12-07T03:23:23;1.60;99.90
34099;DHT22;20374;49.474;10.944;2022-12-07T03:25:55;1.60;99.90
34099;DHT22;20374;49.474;10.944;2022-12-07T03:28:24;1.60;99.90
34099;DHT22;20374;49.474;10.944;2022-12-07T03:31:02;1.60;99.90
34099;DHT22;20374;49.474;10.944;2022-12-07T03:33:36;1.60;99.90
34099;DHT22;20374;49.474;10.944;2022-12-07T03:36:08;1.60;99.90
34099;DHT22;20374;49.474;10.944;2022-12-07T03:38:52;1.60;99.90
34099;DHT22;20374;49.474;10.944;2022-12-07T03:41:25;1.50;99.90
34099;DHT22;20374;49.474;10.944;2022-12-07T03:43:54;1.50;99.90
34099;DHT22;20374;49.474;10.944;2022-12-07T03:46:41;1.50;99.90
34099;DHT22;20374;49.474;10.944;2022-12-07T03:52:32;1.40;99.90
34099;DHT22;20374;49.474;10.944;2022-12-07T03:55:06;1.30;99.90
34099;DHT22;20374;49.474;10.944;2022-12-07T03:57:35;1.30;99.90
34099;DHT22;20374;49.474;10.944;2022-12-07T04:00:06;1.20;99.90
34099;DHT22;20374;49.474;10.944;2022-12-07T04:02:38;1.10;99.90
34099;DHT22;20374;49.474;10.944;2022-12-07T04:05:04;1.10;99.90
34099;DHT22;20374;49.474;10.944;2022-12-07T04:07:30;1.00;99.90
34099;DHT22;20374;49.474;10.944;2022-12-07T04:09:56;1.10;99.90
34099;DHT22;20374;49.474;10.944;2022-12-07T04:12:23;1.10;99.90
34099;DHT22;20374;49.474;10.944;2022-12-07T04:14:49;1.00;99.90
34099;DHT22;20374;49.474;10.944;2022-12-07T04:17:15;1.00;99.90
34099;DHT22;20374;49.474;10.944;2022-12-07T04:19:41;1.00;99.90
34099;DHT22;20374;49.474;10.944;2022-12-07T04:22:07;1.00;99.90
34099;DHT22;20374;49.474;10.944;2022-12-07T04:24:34;1.00;99.90
34099;DHT22;20374;49.474;10.944;2022-12-07T04:27:00;1.00;99.90
34099;DHT22;20374;49.474;10.944;2022-12-07T04:29:26;1.00;99.90
34099;DHT22;20374;49.474;10.944;2022-12-07T04:31:52;1.00;99.90
34099;DHT22;20374;49.474;10.944;2022-12-07T04:34:19;1.10;99.90
34099;DHT22;20374;49.474;10.944;2022-12-07T04:36:46;1.10;99.90
34099;DHT22;20374;49.474;10.944;2022-12-07T04:39:19;1.10;99.90
34099;DHT22;20374;49.474;10.944;2022-12-07T04:41:45;1.10;99.90
34099;DHT22;20374;49.474;10.944;2022-12-07T04:44:13;1.10;99.90
34099;DHT22;20374;49.474;10.944;2022-12-07T04:46:40;1.10;99.90
34099;DHT22;20374;49.474;10.944;2022-12-07T04:49:07;1.10;99.90
34099;DHT22;20374;49.474;10.944;2022-12-07T04:51:33;1.10;99.90
34099;DHT22;20374;49.474;10.944;2022-12-07T04:53:59;1.20;99.90
34099;DHT22;20374;49.474;10.944;2022-12-07T04:56:25;1.20;99.90
34099;DHT22;20374;49.474;10.944;2022-12-07T04:58:52;1.20;99.90
34099;DHT22;20374;49.474;10.944;2022-12-07T05:01:19;1.20;99.90
34099;DHT22;20374;49.474;10.944;2022-12-07T05:03:46;1.20;99.90
34099;DHT22;20374;49.474;10.944;2022-12-07T05:06:13;1.20;99.90
34099;DHT22;20374;49.474;10.944;2022-12-07T05:08:39;1.30;99.90
34099;DHT22;20374;49.474;10.944;2022-12-07T05:11:06;1.30;99.90
34099;DHT22;20374;49.474;10.944;2022-12-07T05:13:33;1.30;99.90
34099;DHT22;20374;49.474;10.944;2022-12-07T05:15:59;1.30;99.90
34099;DHT22;20374;49.474;10.944;2022-12-07T05:18:25;1.30;99.90
34099;DHT22;20374;49.474;10.944;2022-12-07T05:20:51;1.30;99.90
34099;DHT22;20374;49.474;10.944;2022-12-07T05:23:18;1.40;99.90
34099;DHT22;20374;49.474;10.944;2022-12-07T05:25:44;1.40;99.90
34099;DHT22;20374;49.474;10.944;2022-12-07T05:28:10;1.30;99.90
34099;DHT22;20374;49.474;10.944;2022-12-07T05:30:36;1.40;99.90
34099;DHT22;20374;49.474;10.944;2022-12-07T05:33:02;1.30;99.90
34099;DHT22;20374;49.474;10.944;2022-12-07T05:35:29;1.40;99.90
34099;DHT22;20374;49.474;10.944;2022-12-07T05:37:55;1.30;99.90
34099;DHT22;20374;49.474;10.944;2022-12-07T05:40:22;1.30;99.90
34099;DHT22;20374;49.474;10.944;2022-12-07T05:42:48;1.30;99.90
34099;DHT22;20374;49.474;10.944;2022-12-07T05:45:14;1.40;99.90
34099;DHT22;20374;49.474;10.944;2022-12-07T05:47:40;1.40;99.90
34099;DHT22;20374;49.474;10.944;2022-12-07T05:50:06;1.40;99.90
34099;DHT22;20374;49.474;10.944;2022-12-07T05:52:33;1.40;99.90
34099;DHT22;20374;49.474;10.944;2022-12-07T05:54:59;1.40;99.90
34099;DHT22;20374;49.474;10.944;2022-12-07T05:57:24;1.40;99.90
34099;DHT22;20374;49.474;10.944;2022-12-07T05:59:50;1.40;99.90
34099;DHT22;20374;49.474;10.944;2022-12-07T06:02:17;1.40;99.90
34099;DHT22;20374;49.474;10.944;2022-12-07T06:04:45;1.40;99.90
34099;DHT22;20374;49.474;10.944;2022-12-07T06:07:13;1.40;99.90
34099;DHT22;20374;49.474;10.944;2022-12-07T06:09:40;1.40;99.90
34099;DHT22;20374;49.474;10.944;2022-12-07T06:12:06;1.40;99.90
34099;DHT22;20374;49.474;10.944;2022-12-07T06:14:53;1.30;99.90
34099;DHT22;20374;49.474;10.944;2022-12-07T06:17:19;1.40;99.90
34099;DHT22;20374;49.474;10.944;2022-12-07T06:19:45;1.40;99.90
34099;DHT22;20374;49.474;10.944;2022-12-07T06:22:11;1.40;99.90
34099;DHT22;20374;49.474;10.944;2022-12-07T06:24:38;1.40;99.90
34099;DHT22;20374;49.474;10.944;2022-12-07T06:27:05;1.40;99.90
34099;DHT22;20374;49.474;10.944;2022-12-07T06:29:31;1.40;99.90
34099;DHT22;20374;49.474;10.944;2022-12-07T06:31:57;1.40;99.90
34099;DHT22;20374;49.474;10.944;2022-12-07T06:34:24;1.40;99.90
34099;DHT22;20374;49.474;10.944;2022-12-07T06:36:51;1.40;99.90
34099;DHT22;20374;49.474;10.944;2022-12-07T06:39:20;1.50;99.90
34099;DHT22;20374;49.474;10.944;2022-12-07T06:41:46;1.50;99.90
34099;DHT22;20374;49.474;10.944;2022-12-07T06:44:13;1.50;99.90
34099;DHT22;20374;49.474;10.944;2022-12-07T06:46:38;1.50;99.90
34099;DHT22;20374;49.474;10.944;2022-12-07T06:49:05;1.50;99.90
34099;DHT22;20374;49.474;10.944;2022-12-07T06:51:34;1.60;99.90
34099;DHT22;20374;49.474;10.944;2022-12-07T06:54:11;1.60;99.90
34099;DHT22;20374;49.474;10.944;2022-12-07T06:56:37;1.60;99.90
34099;DHT22;20374;49.474;10.944;2022-12-07T06:59:04;1.60;99.90
34099;DHT22;20374;49.474;10.944;2022-12-07T07:01:32;1.60;99.90
34099;DHT22;20374;49.474;10.944;2022-12-07T07:03:59;1.60;99.90
34099;DHT22;20374;49.474;10.944;2022-12-07T07:06:25;1.70;99.90
34099;DHT22;20374;49.474;10.944;2022-12-07T07:08:51;1.70;99.90
34099;DHT22;20374;49.474;10.944;2022-12-07T07:11:18;1.70;99.90
34099;DHT22;20374;49.474;10.944;2022-12-07T07:13:44;1.80;99.90
34099;DHT22;20374;49.474;10.944;2022-12-07T07:16:11;1.80;99.90
34099;DHT22;20374;49.474;10.944;2022-12-07T07:18:37;1.90;99.90
34099;DHT22;20374;49.474;10.944;2022-12-07T07:21:03;2.00;99.90
34099;DHT22;20374;49.474;10.944;2022-12-07T07:23:29;2.00;99.90
34099;DHT22;20374;49.474;10.944;2022-12-07T07:25:55;2.10;99.90
34099;DHT22;20374;49.474;10.944;2022-12-07T07:28:21;2.10;99.90
34099;DHT22;20374;49.474;10.944;2022-12-07T07:30:48;2.10;99.90
34099;DHT22;20374;49.474;10.944;2022-12-07T07:33:14;2.10;99.90
34099;DHT22;20374;49.474;10.944;2022-12-07T07:35:40;2.10;99.90
34099;DHT22;20374;49.474;10.944;2022-12-07T07:38:07;2.10;99.90
34099;DHT22;20374;49.474;10.944;2022-12-07T07:40:33;2.20;99.90
34099;DHT22;20374;49.474;10.944;2022-12-07T07:42:59;2.20;99.90
34099;DHT22;20374;49.474;10.944;2022-12-07T07:45:26;2.20;99.90
34099;DHT22;20374;49.474;10.944;2022-12-07T07:47:53;2.20;99.90
34099;DHT22;20374;49.474;10.944;2022-12-07T07:50:19;2.20;99.90
34099;DHT22;20374;49.474;10.944;2022-12-07T07:52:46;2.30;99.90
34099;DHT22;20374;49.474;10.944;2022-12-07T07:55:12;2.30;99.90
34099;DHT22;20374;49.474;10.944;2022-12-07T07:57:39;2.30;99.90
34099;DHT22;20374;49.474;10.944;2022-12-07T08:00:09;2.20;99.90
34099;DHT22;20374;49.474;10.944;2022-12-07T08:02:39;2.30;99.90
34099;DHT22;20374;49.474;10.944;2022-12-07T08:05:06;2.40;99.90
34099;DHT22;20374;49.474;10.944;2022-12-07T08:07:32;2.40;99.90
34099;DHT22;20374;49.474;10.944;2022-12-07T08:09:58;2.40;99.90
34099;DHT22;20374;49.474;10.944;2022-12-07T08:12:23;2.50;99.90
34099;DHT22;20374;49.474;10.944;2022-12-07T08:14:49;2.50;99.90
34099;DHT22;20374;49.474;10.944;2022-12-07T08:17:15;2.50;99.90
34099;DHT22;20374;49.474;10.944;2022-12-07T08:19:41;2.50;99.90
34099;DHT22;20374;49.474;10.944;2022-12-07T08:22:07;2.50;99.90
34099;DHT22;20374;49.474;10.944;2022-12-07T08:24:34;2.70;99.90
34099;DHT22;20374;49.474;10.944;2022-12-07T08:27:00;2.60;99.90
34099;DHT22;20374;49.474;10.944;2022-12-07T08:29:26;2.70;99.90
34099;DHT22;20374;49.474;10.944;2022-12-07T08:31:52;2.70;99.90
34099;DHT22;20374;49.474;10.944;2022-12-07T08:34:18;2.70;99.90
34099;DHT22;20374;49.474;10.944;2022-12-07T08:36:44;2.70;99.90
34099;DHT22;20374;49.474;10.944;2022-12-07T08:39:10;2.70;99.90
34099;DHT22;20374;49.474;10.944;2022-12-07T08:41:36;2.70;99.90
34099;DHT22;20374;49.474;10.944;2022-12-07T08:44:02;2.70;99.90
34099;DHT22;20374;49.474;10.944;2022-12-07T08:49:08;2.80;99.90
34099;DHT22;20374;49.474;10.944;2022-12-07T08:51:36;2.80;99.90
34099;DHT22;20374;49.474;10.944;2022-12-07T08:54:04;2.90;99.90
34099;DHT22;20374;49.474;10.944;2022-12-07T08:56:31;2.90;99.90
34099;DHT22;20374;49.474;10.944;2022-12-07T08:58:58;3.00;99.90
34099;DHT22;20374;49.474;10.944;2022-12-07T09:01:24;3.00;99.90
34099;DHT22;20374;49.474;10.944;2022-12-07T09:03:50;3.00;99.90
34099;DHT22;20374;49.474;10.944;2022-12-07T09:06:16;2.90;99.90
34099;DHT22;20374;49.474;10.944;2022-12-07T09:08:48;2.80;99.90
34099;DHT22;20374;49.474;10.944;2022-12-07T09:11:15;2.80;99.90
34099;DHT22;20374;49.474;10.944;2022-12-07T09:13:41;2.70;99.90
34099;DHT22;20374;49.474;10.944;2022-12-07T09:16:07;2.70;99.90
34099;DHT22;20374;49.474;10.944;2022-12-07T09:18:33;2.70;99.90
34099;DHT22;20374;49.474;10.944;2022-12-07T09:20:59;2.70;99.90
34099;DHT22;20374;49.474;10.944;2022-12-07T09:23:25;2.70;99.90
34099;DHT22;20374;49.474;10.944;2022-12-07T09:25:51;2.60;99.90
34099;DHT22;20374;49.474;10.944;2022-12-07T09:28:17;2.60;99.90
34099;DHT22;20374;49.474;10.944;2022-12-07T09:30:47;2.60;99.90
34099;DHT22;20374;49.474;10.944;2022-12-07T09:33:13;2.60;99.90
34099;DHT22;20374;49.474;10.944;2022-12-07T09:35:47;2.60;99.90
34099;DHT22;20374;49.474;10.944;2022-12-07T09:38:13;2.60;99.90
34099;DHT22;20374;49.474;10.944;2022-12-07T09:40:40;2.60;99.90
34099;DHT22;20374;49.474;10.944;2022-12-07T09:43:18;2.60;99.90
34099;DHT22;20374;49.474;10.944;2022-12-07T09:45:45;2.60;99.90
34099;DHT22;20374;49.474;10.944;2022-12-07T09:48:24;2.60;99.90
34099;DHT22;20374;49.474;10.944;2022-12-07T09:50:52;2.70;99.90
34099;DHT22;20374;49.474;10.944;2022-12-07T09:55:51;2.70;99.90
34099;DHT22;20374;49.474;10.944;2022-12-07T09:58:28;2.70;99.90
34099;DHT22;20374;49.474;10.944;2022-12-07T10:00:59;2.70;99.90
34099;DHT22;20374;49.474;10.944;2022-12-07T10:03:28;2.80;99.90
34099;DHT22;20374;49.474;10.944;2022-12-07T10:05:55;2.80;99.90
34099;DHT22;20374;49.474;10.944;2022-12-07T10:08:24;2.90;99.90
34099;DHT22;20374;49.474;10.944;2022-12-07T10:10:55;2.90;99.90
34099;DHT22;20374;49.474;10.944;2022-12-07T10:13:42;2.90;99.90
34099;DHT22;20374;49.474;10.944;2022-12-07T10:16:39;2.90;99.90
34099;DHT22;20374;49.474;10.944;2022-12-07T10:24:36;3.00;99.90
34099;DHT22;20374;49.474;10.944;2022-12-07T10:27:09;2.90;99.90
34099;DHT22;20374;49.474;10.944;2022-12-07T10:29:50;3.00;99.90
34099;DHT22;20374;49.474;10.944;2022-12-07T10:34:43;3.10;99.90
34099;DHT22;20374;49.474;10.944;2022-12-07T10:39:43;3.20;99.90
34099;DHT22;20374;49.474;10.944;2022-12-07T10:42:22;3.20;99.90
34099;DHT22;20374;49.474;10.944;2022-12-07T10:45:03;3.10;99.90
34099;DHT22;20374;49.474;10.944;2022-12-07T10:56:24;3.20;99.90
34099;DHT22;20374;49.474;10.944;2022-12-07T10:59:23;3.20;99.90
34099;DHT22;20374;49.474;10.944;2022-12-07T11:07:06;3.20;99.90
34099;DHT22;20374;49.474;10.944;2022-12-07T11:17:31;3.20;99.90
34099;DHT22;20374;49.474;10.944;2022-12-07T11:23:59;3.30;99.90
34099;DHT22;20374;49.474;10.944;2022-12-07T11:34:04;3.40;99.90
34099;DHT22;20374;49.474;10.944;2022-12-07T11:36:41;3.40;99.90
34099;DHT22;20374;49.474;10.944;2022-12-07T11:39:30;3.50;99.90
34099;DHT22;20374;49.474;10.944;2022-12-07T11:42:06;3.50;99.90
34099;DHT22;20374;49.474;10.944;2022-12-07T11:44:52;3.40;99.90
34099;DHT22;20374;49.474;10.944;2022-12-07T11:47:30;3.40;99.90
34099;DHT22;20374;49.474;10.944;2022-12-07T11:55:18;3.40;99.90
34099;DHT22;20374;49.474;10.944;2022-12-07T11:57:51;3.40;99.90
34099;DHT22;20374;49.474;10.944;2022-12-07T12:00:18;3.40;99.90
34099;DHT22;20374;49.474;10.944;2022-12-07T12:03:20;3.50;99.90
34099;DHT22;20374;49.474;10.944;2022-12-07T12:05:49;3.50;99.90
34099;DHT22;20374;49.474;10.944;2022-12-07T12:08:20;3.50;99.90
34099;DHT22;20374;49.474;10.944;2022-12-07T12:10:58;3.50;99.90
34099;DHT22;20374;49.474;10.944;2022-12-07T12:15:59;3.50;99.90
34099;DHT22;20374;49.474;10.944;2022-12-07T12:21:17;3.50;99.90
34099;DHT22;20374;49.474;10.944;2022-12-07T12:23:55;3.50;99.90
34099;DHT22;20374;49.474;10.944;2022-12-07T12:26:29;3.50;99.90
34099;DHT22;20374;49.474;10.944;2022-12-07T12:28:59;3.50;99.90
34099;DHT22;20374;49.474;10.944;2022-12-07T12:31:40;3.50;99.90
34099;DHT22;20374;49.474;10.944;2022-12-07T12:36:54;3.50;99.90
34099;DHT22;20374;49.474;10.944;2022-12-07T12:39:20;3.50;99.90
34099;DHT22;20374;49.474;10.944;2022-12-07T12:51:53;3.50;99.90
34099;DHT22;20374;49.474;10.944;2022-12-07T12:54:36;3.50;99.90
34099;DHT22;20374;49.474;10.944;2022-12-07T12:57:15;3.50;99.90
34099;DHT22;20374;49.474;10.944;2022-12-07T13:02:38;3.40;99.90
34099;DHT22;20374;49.474;10.944;2022-12-07T13:10:36;3.40;99.90
34099;DHT22;20374;49.474;10.944;2022-12-07T13:15:52;3.40;99.90
34099;DHT22;20374;49.474;10.944;2022-12-07T13:23:55;3.50;99.90
34099;DHT22;20374;49.474;10.944;2022-12-07T13:29:14;3.40;99.90
34099;DHT22;20374;49.474;10.944;2022-12-07T13:31:49;3.40;99.90
34099;DHT22;20374;49.474;10.944;2022-12-07T13:37:00;3.60;99.90
34099;DHT22;20374;49.474;10.944;2022-12-07T13:39:27;3.40;99.90
34099;DHT22;20374;49.474;10.944;2022-12-07T13:41:58;3.40;99.90
34099;DHT22;20374;49.474;10.944;2022-12-07T13:44:27;3.40;99.90
34099;DHT22;20374;49.474;10.944;2022-12-07T13:49:31;3.40;99.90
34099;DHT22;20374;49.474;10.944;2022-12-07T13:54:48;3.50;99.90
34099;DHT22;20374;49.474;10.944;2022-12-07T13:57:16;3.40;99.90
34099;DHT22;20374;49.474;10.944;2022-12-07T13:59:43;3.40;99.90
34099;DHT22;20374;49.474;10.944;2022-12-07T14:02:32;3.30;99.90
34099;DHT22;20374;49.474;10.944;2022-12-07T14:05:13;3.40;99.90
34099;DHT22;20374;49.474;10.944;2022-12-07T14:07:59;3.40;99.90
34099;DHT22;20374;49.474;10.944;2022-12-07T14:10:30;3.30;99.90
34099;DHT22;20374;49.474;10.944;2022-12-07T14:12:57;3.40;99.90
34099;DHT22;20374;49.474;10.944;2022-12-07T14:17:56;3.30;99.90
34099;DHT22;20374;49.474;10.944;2022-12-07T14:20:48;3.30;99.90
34099;DHT22;20374;49.474;10.944;2022-12-07T14:23:24;3.30;99.90
34099;DHT22;20374;49.474;10.944;2022-12-07T14:25:52;3.30;99.90
34099;DHT22;20374;49.474;10.944;2022-12-07T14:28:27;3.30;99.90
34099;DHT22;20374;49.474;10.944;2022-12-07T14:30:54;3.40;99.90
34099;DHT22;20374;49.474;10.944;2022-12-07T14:33:20;3.30;99.90
34099;DHT22;20374;49.474;10.944;2022-12-07T14:35:47;3.30;99.90
34099;DHT22;20374;49.474;10.944;2022-12-07T14:38:14;3.30;99.90
34099;DHT22;20374;49.474;10.944;2022-12-07T14:40:41;3.30;99.90
34099;DHT22;20374;49.474;10.944;2022-12-07T14:43:12;3.20;99.90
34099;DHT22;20374;49.474;10.944;2022-12-07T14:45:38;3.20;99.90
34099;DHT22;20374;49.474;10.944;2022-12-07T14:48:05;3.10;99.90
34099;DHT22;20374;49.474;10.944;2022-12-07T14:50:36;3.00;99.90
34099;DHT22;20374;49.474;10.944;2022-12-07T14:53:11;3.00;99.90
34099;DHT22;20374;49.474;10.944;2022-12-07T14:55:38;2.90;99.90
34099;DHT22;20374;49.474;10.944;2022-12-07T14:58:04;2.80;99.90
34099;DHT22;20374;49.474;10.944;2022-12-07T15:00:30;2.70;99.90
34099;DHT22;20374;49.474;10.944;2022-12-07T15:02:56;2.70;99.90
34099;DHT22;20374;49.474;10.944;2022-12-07T15:05:23;2.70;99.90
34099;DHT22;20374;49.474;10.944;2022-12-07T15:07:49;2.60;99.90
34099;DHT22;20374;49.474;10.944;2022-12-07T15:10:23;2.80;99.90
34099;DHT22;20374;49.474;10.944;2022-12-07T15:12:51;2.80;99.90
34099;DHT22;20374;49.474;10.944;2022-12-07T15:15:17;2.70;99.90
34099;DHT22;20374;49.474;10.944;2022-12-07T15:17:43;2.80;99.90
34099;DHT22;20374;49.474;10.944;2022-12-07T15:20:13;2.80;99.90
34099;DHT22;20374;49.474;10.944;2022-12-07T15:22:40;2.90;99.90
34099;DHT22;20374;49.474;10.944;2022-12-07T15:25:06;2.90;99.90
34099;DHT22;20374;49.474;10.944;2022-12-07T15:27:33;2.90;99.90
34099;DHT22;20374;49.474;10.944;2022-12-07T15:29:59;2.90;99.90
34099;DHT22;20374;49.474;10.944;2022-12-07T15:32:25;2.80;99.90
34099;DHT22;20374;49.474;10.944;2022-12-07T15:34:51;2.80;99.90
34099;DHT22;20374;49.474;10.944;2022-12-07T15:37:19;2.80;99.90
34099;DHT22;20374;49.474;10.944;2022-12-07T15:39:45;2.80;99.90
34099;DHT22;20374;49.474;10.944;2022-12-07T15:42:11;2.80;99.90
34099;DHT22;20374;49.474;10.944;2022-12-07T15:44:37;2.80;99.90
34099;DHT22;20374;49.474;10.944;2022-12-07T15:47:21;2.80;99.90
34099;DHT22;20374;49.474;10.944;2022-12-07T15:49:47;2.80;99.90
34099;DHT22;20374;49.474;10.944;2022-12-07T15:52:13;2.80;99.90
34099;DHT22;20374;49.474;10.944;2022-12-07T15:54:39;2.80;99.90
34099;DHT22;20374;49.474;10.944;2022-12-07T15:57:05;2.80;99.90
34099;DHT22;20374;49.474;10.944;2022-12-07T15:59:31;2.80;99.90
34099;DHT22;20374;49.474;10.944;2022-12-07T16:01:57;2.90;99.90
34099;DHT22;20374;49.474;10.944;2022-12-07T16:04:23;2.80;99.90
34099;DHT22;20374;49.474;10.944;2022-12-07T16:06:49;2.80;99.90
34099;DHT22;20374;49.474;10.944;2022-12-07T16:09:16;2.90;99.90
34099;DHT22;20374;49.474;10.944;2022-12-07T16:11:42;2.80;99.90
34099;DHT22;20374;49.474;10.944;2022-12-07T16:14:08;2.80;99.90
34099;DHT22;20374;49.474;10.944;2022-12-07T16:16:34;2.80;99.90
34099;DHT22;20374;49.474;10.944;2022-12-07T16:19:00;2.80;99.90
34099;DHT22;20374;49.474;10.944;2022-12-07T16:21:26;2.70;99.90
34099;DHT22;20374;49.474;10.944;2022-12-07T16:23:52;2.80;99.90
34099;DHT22;20374;49.474;10.944;2022-12-07T16:26:20;2.70;99.90
34099;DHT22;20374;49.474;10.944;2022-12-07T16:28:49;2.70;99.90
34099;DHT22;20374;49.474;10.944;2022-12-07T16:31:17;2.70;99.90
34099;DHT22;20374;49.474;10.944;2022-12-07T16:33:44;2.60;99.90
34099;DHT22;20374;49.474;10.944;2022-12-07T16:36:12;2.50;99.90
34099;DHT22;20374;49.474;10.944;2022-12-07T16:38:39;2.60;99.90
34099;DHT22;20374;49.474;10.944;2022-12-07T16:41:06;2.50;99.90
34099;DHT22;20374;49.474;10.944;2022-12-07T16:43:33;2.50;99.90
34099;DHT22;20374;49.474;10.944;2022-12-07T16:45:59;2.50;99.90
34099;DHT22;20374;49.474;10.944;2022-12-07T16:48:25;2.50;99.90
34099;DHT22;20374;49.474;10.944;2022-12-07T16:50:52;2.50;99.90
34099;DHT22;20374;49.474;10.944;2022-12-07T16:53:22;2.50;99.90
34099;DHT22;20374;49.474;10.944;2022-12-07T16:55:49;2.40;99.90
34099;DHT22;20374;49.474;10.944;2022-12-07T16:58:17;2.40;99.90
34099;DHT22;20374;49.474;10.944;2022-12-07T17:00:44;2.40;99.90
34099;DHT22;20374;49.474;10.944;2022-12-07T17:03:10;2.40;99.90
34099;DHT22;20374;49.474;10.944;2022-12-07T17:05:41;2.30;99.90
34099;DHT22;20374;49.474;10.944;2022-12-07T17:08:08;2.20;99.90
34099;DHT22;20374;49.474;10.944;2022-12-07T17:10:37;2.30;99.90
34099;DHT22;20374;49.474;10.944;2022-12-07T17:13:04;2.30;99.90
34099;DHT22;20374;49.474;10.944;2022-12-07T17:15:58;2.20;99.90
34099;DHT22;20374;49.474;10.944;2022-12-07T17:18:30;2.20;99.90
34099;DHT22;20374;49.474;10.944;2022-12-07T17:21:07;2.20;99.90
34099;DHT22;20374;49.474;10.944;2022-12-07T17:23:34;2.20;99.90
34099;DHT22;20374;49.474;10.944;2022-12-07T17:26:10;2.10;99.90
34099;DHT22;20374;49.474;10.944;2022-12-07T17:28:36;2.10;99.90
34099;DHT22;20374;49.474;10.944;2022-12-07T17:31:08;2.00;99.90
34099;DHT22;20374;49.474;10.944;2022-12-07T17:33:34;2.00;99.90
34099;DHT22;20374;49.474;10.944;2022-12-07T17:36:04;2.00;99.90
34099;DHT22;20374;49.474;10.944;2022-12-07T17:38:34;1.90;99.90
34099;DHT22;20374;49.474;10.944;2022-12-07T17:41:00;1.90;99.90
34099;DHT22;20374;49.474;10.944;2022-12-07T17:43:33;1.90;99.90
34099;DHT22;20374;49.474;10.944;2022-12-07T17:46:05;1.90;99.90
34099;DHT22;20374;49.474;10.944;2022-12-07T17:48:31;1.90;99.90
34099;DHT22;20374;49.474;10.944;2022-12-07T17:51:00;1.90;99.90
34099;DHT22;20374;49.474;10.944;2022-12-07T17:53:48;1.90;99.90
34099;DHT22;20374;49.474;10.944;2022-12-07T17:56:14;1.90;99.90
34099;DHT22;20374;49.474;10.944;2022-12-07T17:58:43;1.90;99.90
34099;DHT22;20374;49.474;10.944;2022-12-07T18:01:09;2.00;99.90
34099;DHT22;20374;49.474;10.944;2022-12-07T18:03:36;2.00;99.90
34099;DHT22;20374;49.474;10.944;2022-12-07T18:06:02;2.00;99.90
34099;DHT22;20374;49.474;10.944;2022-12-07T18:08:28;2.00;99.90
34099;DHT22;20374;49.474;10.944;2022-12-07T18:10:59;2.00;99.90